Time;durP1;ratioP1;P1;durP2;ratioP2;P2;SDS_P1;SDS_P2;PMS_P1;PMS_P2;Temp;Humidity;BMP_temperature;BMP_pressure;BME280_temperature;BME280_humidity;BME280_pressure;Samples;Min_cycle;Max_cycle;Signal;HPM_P1;HPM_P2
2022/02/18 00:01:23;;;;;;;9.98;6.10;;;4.40;99.90;;;;;;4967859;28;20029;-96
2022/02/18 00:03:49;;;;;;;8.60;5.35;;;4.40;99.90;;;;;;4971123;28;20026;-96
2022/02/18 00:06:16;;;;;;;9.07;5.70;;;4.40;99.90;;;;;;4967802;28;20158;-96
2022/02/18 00:08:44;;;;;;;7.97;5.03;;;4.40;99.90;;;;;;4968380;28;20027;-96
2022/02/18 00:11:11;;;;;;;6.93;4.88;;;4.50;99.90;;;;;;4983271;28;20031;-96
2022/02/18 00:13:37;;;;;;;8.20;4.85;;;4.60;99.90;;;;;;4984171;28;20055;-96
2022/02/18 00:16:04;;;;;;;6.78;5.25;;;4.50;99.90;;;;;;4965645;28;20058;-96
2022/02/18 00:18:34;;;;;;;8.98;5.70;;;4.60;99.90;;;;;;4964751;28;20031;-96
2022/02/18 00:20:59;;;;;;;7.45;5.03;;;4.50;99.90;;;;;;4963341;28;20023;-96
2022/02/18 00:23:26;;;;;;;9.27;5.10;;;4.40;99.90;;;;;;4964000;28;20469;-96
2022/02/18 00:25:52;;;;;;;7.07;4.82;;;4.30;99.90;;;;;;4963404;28;20023;-96
2022/02/18 00:28:17;;;;;;;6.70;5.10;;;4.30;99.90;;;;;;4962083;28;20494;-96
2022/02/18 00:30:43;;;;;;;8.60;5.47;;;4.30;99.90;;;;;;4960602;28;20031;-96
2022/02/18 00:33:10;;;;;;;7.40;4.88;;;4.30;99.90;;;;;;4959575;28;20027;-96
2022/02/18 00:35:36;;;;;;;7.72;5.13;;;4.20;99.90;;;;;;4959754;28;20081;-96
2022/02/18 00:38:02;;;;;;;7.47;4.55;;;4.10;99.90;;;;;;4959221;28;20031;-96
2022/02/18 00:40:30;;;;;;;9.73;5.13;;;4.10;99.90;;;;;;4959910;28;20026;-96
2022/02/18 00:42:56;;;;;;;8.15;4.80;;;4.00;99.90;;;;;;4958648;28;20074;-96
2022/02/18 00:45:23;;;;;;;11.88;5.13;;;4.00;99.90;;;;;;4958473;28;20022;-96
2022/02/18 00:47:50;;;;;;;6.00;4.55;;;4.00;99.90;;;;;;4958708;28;20027;-96
2022/02/18 00:50:17;;;;;;;6.45;4.47;;;4.00;99.90;;;;;;4958397;28;20055;-96
2022/02/18 00:52:43;;;;;;;8.10;4.65;;;4.00;99.90;;;;;;4958322;28;20031;-96
2022/02/18 00:55:10;;;;;;;8.82;4.60;;;4.00;99.90;;;;;;4958461;28;20101;-96
2022/02/18 00:57:36;;;;;;;7.75;4.75;;;4.00;99.90;;;;;;4958681;28;20030;-96
2022/02/18 01:00:06;;;;;;;8.50;4.95;;;4.00;99.90;;;;;;4960620;28;20034;-96
2022/02/18 01:02:31;;;;;;;9.50;5.30;;;3.90;99.90;;;;;;4963318;28;20026;-96
2022/02/18 01:04:57;;;;;;;7.45;5.25;;;3.90;99.90;;;;;;4962498;28;20026;-96
2022/02/18 01:07:25;;;;;;;9.23;5.55;;;3.80;99.90;;;;;;4964546;28;20023;-96
2022/02/18 01:09:53;;;;;;;9.98;5.30;;;3.70;99.90;;;;;;4968954;28;20085;-96
2022/02/18 01:12:20;;;;;;;9.35;5.45;;;3.70;99.90;;;;;;4952208;28;20207;-96
2022/02/18 01:14:46;;;;;;;8.13;5.50;;;3.60;99.90;;;;;;4962391;28;20063;-96
2022/02/18 01:17:12;;;;;;;8.40;5.45;;;3.60;99.90;;;;;;4963070;28;20031;-96
2022/02/18 01:19:38;;;;;;;8.30;5.60;;;3.50;99.90;;;;;;4962975;28;20382;-96
2022/02/18 01:22:04;;;;;;;7.97;5.10;;;3.50;99.90;;;;;;4962931;28;20494;-96
2022/02/18 01:24:30;;;;;;;7.38;4.63;;;3.40;99.90;;;;;;4962818;28;20524;-96
2022/02/18 01:26:56;;;;;;;8.40;4.85;;;3.30;99.90;;;;;;4963527;28;20031;-96
2022/02/18 01:29:22;;;;;;;9.55;5.45;;;3.30;99.90;;;;;;4964850;28;20026;-96
2022/02/18 01:31:48;;;;;;;9.15;5.22;;;3.30;99.90;;;;;;4968392;28;20129;-96
2022/02/18 01:34:14;;;;;;;10.45;5.82;;;3.20;99.90;;;;;;4968377;28;20109;-96
2022/02/18 01:36:40;;;;;;;9.57;5.25;;;3.30;99.90;;;;;;4954701;28;20027;-96
2022/02/18 01:39:06;;;;;;;9.65;5.80;;;3.30;99.90;;;;;;4967321;28;20031;-96
2022/02/18 01:41:32;;;;;;;11.20;6.00;;;3.40;99.90;;;;;;4967881;28;20019;-96
2022/02/18 01:44:00;;;;;;;12.60;6.90;;;3.40;99.90;;;;;;4970797;28;20081;-96
2022/02/18 01:46:27;;;;;;;13.63;7.93;;;3.50;99.90;;;;;;4972748;28;20025;-96
2022/02/18 01:48:57;;;;;;;14.65;8.32;;;3.50;99.90;;;;;;4965165;28;20026;-96
2022/02/18 01:51:24;;;;;;;14.50;8.13;;;3.60;99.90;;;;;;4973299;28;20011;-96
2022/02/18 01:53:52;;;;;;;13.05;7.57;;;3.70;99.90;;;;;;4965197;28;20038;-96
2022/02/18 01:56:22;;;;;;;20.33;7.07;;;3.80;99.90;;;;;;4969824;28;20054;-96
2022/02/18 01:58:48;;;;;;;11.43;7.00;;;3.80;99.90;;;;;;4965786;28;20031;-96
2022/02/18 02:01:15;;;;;;;10.60;6.38;;;3.80;99.90;;;;;;4963073;28;20465;-96
2022/02/18 02:03:41;;;;;;;10.43;6.18;;;3.90;99.90;;;;;;4967207;28;20034;-96
2022/02/18 02:06:08;;;;;;;9.65;5.97;;;3.90;99.90;;;;;;4963533;28;20125;-96
2022/02/18 02:08:36;;;;;;;8.60;5.88;;;4.00;99.90;;;;;;4963005;28;20031;-96
2022/02/18 02:11:04;;;;;;;11.18;6.13;;;4.10;99.90;;;;;;4985727;28;20026;-96
2022/02/18 02:13:36;;;;;;;10.52;6.57;;;4.10;99.90;;;;;;4968002;28;20051;-96
2022/02/18 02:16:03;;;;;;;12.75;6.88;;;4.10;99.90;;;;;;4969234;28;20023;-96
2022/02/18 02:18:29;;;;;;;9.70;6.72;;;4.10;99.90;;;;;;4967457;28;20027;-96
2022/02/18 02:20:55;;;;;;;9.50;5.90;;;4.10;99.90;;;;;;4967762;28;20047;-96
2022/02/18 02:23:21;;;;;;;8.90;5.32;;;4.10;99.90;;;;;;4966934;28;20041;-96
2022/02/18 02:25:47;;;;;;;8.15;5.18;;;4.20;99.90;;;;;;4966992;28;20026;-96
2022/02/18 02:28:13;;;;;;;7.95;5.60;;;4.20;99.90;;;;;;4968243;28;20081;-96
2022/02/18 02:30:40;;;;;;;6.47;4.55;;;4.20;99.90;;;;;;4966951;28;20034;-96
2022/02/18 02:33:06;;;;;;;6.28;4.78;;;4.20;99.90;;;;;;4967011;28;20034;-96
2022/02/18 02:35:35;;;;;;;7.30;4.55;;;4.20;99.90;;;;;;4955489;28;20038;-96
2022/02/18 02:38:28;;;;;;;6.03;4.45;;;4.20;99.90;;;;;;5102136;23;20070;-96
2022/02/18 02:40:59;;;;;;;7.70;4.30;;;4.20;99.90;;;;;;4973686;28;20034;-96
2022/02/18 02:44:38;;;;;;;5.90;3.90;;;4.30;99.90;;;;;;4978734;28;20031;-96
2022/02/18 02:47:13;;;;;;;5.90;3.90;;;4.30;99.90;;;;;;4971828;28;20011;-96
2022/02/18 02:49:39;;;;;;;5.25;3.92;;;4.30;99.90;;;;;;4993378;28;20029;-96
2022/02/18 02:52:06;;;;;;;6.30;3.95;;;4.30;99.90;;;;;;4972984;28;20046;-96
2022/02/18 02:54:36;;;;;;;6.47;3.70;;;4.40;99.90;;;;;;4991595;28;20026;-96
2022/02/18 02:57:04;;;;;;;4.05;3.47;;;4.40;99.90;;;;;;4976167;28;20508;-96
2022/02/18 02:59:32;;;;;;;5.88;3.55;;;4.40;99.90;;;;;;4975207;28;20051;-96
2022/02/18 03:01:59;;;;;;;6.55;4.20;;;4.50;99.90;;;;;;4976207;28;20027;-96
2022/02/18 03:04:26;;;;;;;5.80;3.80;;;4.50;99.90;;;;;;4993115;28;20027;-96
2022/02/18 03:07:10;;;;;;;5.82;4.28;;;4.50;99.90;;;;;;4959054;28;20050;-96
2022/02/18 03:09:43;;;;;;;6.63;4.65;;;4.50;99.90;;;;;;4997292;28;20082;-96
2022/02/18 03:12:13;;;;;;;6.10;4.20;;;4.60;99.90;;;;;;4977607;28;20465;-96
2022/02/18 03:14:40;;;;;;;5.45;4.07;;;4.60;99.90;;;;;;4975452;28;20015;-96
2022/02/18 03:17:06;;;;;;;5.97;4.00;;;4.70;99.90;;;;;;4974620;28;20034;-96
2022/02/18 03:19:31;;;;;;;5.63;4.00;;;4.70;99.90;;;;;;4958540;28;20019;-96
2022/02/18 03:25:20;;;;;;;7.72;4.10;;;4.80;99.90;;;;;;4983976;28;20030;-94
2022/02/18 03:28:09;;;;;;;7.43;4.93;;;4.80;99.90;;;;;;4975289;28;20026;-96
2022/02/18 03:31:00;;;;;;;11.13;6.13;;;4.80;99.90;;;;;;5448926;23;20050;-96
2022/02/18 03:33:30;;;;;;;6.97;5.20;;;4.80;99.90;;;;;;4974810;28;20045;-96
2022/02/18 03:35:58;;;;;;;7.63;5.00;;;4.80;99.90;;;;;;4978359;28;20050;-96
2022/02/18 03:38:30;;;;;;;8.98;5.85;;;4.80;99.90;;;;;;4993242;28;20046;-96
2022/02/18 03:41:03;;;;;;;10.75;6.63;;;4.80;99.90;;;;;;4988792;28;20362;-96
2022/02/18 03:43:30;;;;;;;13.25;6.05;;;4.80;99.90;;;;;;4956626;28;20027;-96
2022/02/18 03:45:58;;;;;;;7.22;5.20;;;4.80;99.90;;;;;;4974224;28;20030;-96
2022/02/18 03:48:24;;;;;;;10.00;6.05;;;4.80;99.90;;;;;;4956896;28;20031;-96
2022/02/18 03:50:51;;;;;;;11.02;6.60;;;4.70;99.90;;;;;;4977362;28;20059;-96
2022/02/18 03:53:18;;;;;;;10.48;5.68;;;4.70;99.90;;;;;;4969571;28;20024;-96
2022/02/18 03:55:44;;;;;;;11.90;5.88;;;4.70;99.90;;;;;;4972340;28;20113;-96
2022/02/18 03:58:21;;;;;;;8.07;5.53;;;4.70;99.90;;;;;;4972059;28;20034;-96
2022/02/18 04:00:48;;;;;;;7.47;5.28;;;4.70;99.90;;;;;;4962328;28;20035;-96
2022/02/18 04:03:13;;;;;;;7.47;5.05;;;4.70;99.90;;;;;;4963810;28;20019;-96
2022/02/18 04:05:42;;;;;;;7.10;4.68;;;4.70;99.90;;;;;;4972683;28;20078;-96
2022/02/18 04:08:08;;;;;;;5.53;4.15;;;4.70;99.90;;;;;;4971294;28;20027;-96
2022/02/18 04:10:34;;;;;;;5.75;4.57;;;4.80;99.90;;;;;;4969956;28;20030;-96
2022/02/18 04:13:01;;;;;;;5.63;4.15;;;4.80;99.90;;;;;;4969147;28;20393;-96
2022/02/18 04:15:32;;;;;;;6.25;3.95;;;4.80;99.90;;;;;;4966630;28;20026;-96
2022/02/18 04:18:20;;;;;;;5.57;3.80;;;4.80;99.90;;;;;;5073339;23;20033;-96
2022/02/18 04:21:09;;;;;;;6.40;4.07;;;4.80;99.90;;;;;;4965147;28;20122;-96
2022/02/18 04:23:35;;;;;;;9.27;4.82;;;4.90;99.90;;;;;;4966793;28;20030;-96
2022/02/18 04:26:05;;;;;;;7.93;4.80;;;4.90;99.90;;;;;;4962608;28;20118;-96
2022/02/18 04:28:31;;;;;;;5.65;4.22;;;4.90;99.90;;;;;;4978295;28;20104;-96
2022/02/18 04:30:57;;;;;;;7.55;4.65;;;4.90;99.90;;;;;;4965727;28;20027;-96
2022/02/18 04:33:25;;;;;;;6.90;4.78;;;4.90;99.90;;;;;;4968800;28;20073;-96
2022/02/18 04:36:05;;;;;;;7.13;4.53;;;5.00;99.90;;;;;;4990984;28;20039;-96
2022/02/18 04:39:16;;;;;;;7.93;4.97;;;5.00;99.90;;;;;;4973032;28;20043;-96
2022/02/18 04:41:43;;;;;;;6.20;3.90;;;5.00;99.90;;;;;;4976352;28;20110;-96
2022/02/18 04:44:24;;;;;;;6.05;4.05;;;5.00;99.90;;;;;;4988744;28;20559;-96
2022/02/18 04:46:50;;;;;;;6.63;4.63;;;5.00;99.90;;;;;;4973029;28;20027;-96
2022/02/18 04:49:15;;;;;;;6.15;4.70;;;5.00;99.90;;;;;;4957996;28;20030;-96
2022/02/18 04:51:44;;;;;;;7.60;4.57;;;4.90;99.90;;;;;;4964535;28;20027;-96
2022/02/18 04:54:13;;;;;;;5.65;4.60;;;4.80;99.90;;;;;;4963225;28;20027;-96
2022/02/18 04:56:42;;;;;;;6.80;4.65;;;4.80;99.90;;;;;;4983396;28;20106;-96
2022/02/18 04:59:12;;;;;;;5.70;4.80;;;4.70;99.90;;;;;;4964487;28;20015;-96
2022/02/18 05:01:37;;;;;;;6.30;4.80;;;4.70;99.90;;;;;;4966139;28;20045;-95
2022/02/18 05:04:03;;;;;;;6.38;5.60;;;4.70;99.90;;;;;;4964837;28;20094;-95
2022/02/18 05:06:29;;;;;;;6.60;4.78;;;4.60;99.90;;;;;;4962461;28;20022;-96
2022/02/18 05:08:55;;;;;;;8.70;5.22;;;4.60;99.90;;;;;;4958461;28;20125;-94
2022/02/18 05:11:23;;;;;;;7.80;5.38;;;4.60;99.90;;;;;;4960211;28;20058;-96
2022/02/18 05:13:49;;;;;;;8.48;5.38;;;4.50;99.90;;;;;;4960846;28;20027;-96
2022/02/18 05:16:15;;;;;;;7.78;4.80;;;4.50;99.90;;;;;;4959351;28;20027;-96
2022/02/18 05:18:40;;;;;;;10.63;6.47;;;4.50;99.90;;;;;;4957946;28;20082;-93
2022/02/18 05:21:06;;;;;;;6.75;5.53;;;4.50;99.90;;;;;;4959137;28;20034;-93
2022/02/18 05:23:32;;;;;;;8.27;5.03;;;4.50;99.90;;;;;;4958438;28;20026;-94
2022/02/18 05:25:58;;;;;;;8.90;5.53;;;4.40;99.90;;;;;;4958231;28;20495;-94
2022/02/18 05:28:24;;;;;;;8.23;5.75;;;4.40;99.90;;;;;;4958304;28;20031;-95
2022/02/18 05:30:49;;;;;;;5.78;4.55;;;4.40;99.90;;;;;;4958279;28;20027;-95
2022/02/18 05:33:15;;;;;;;7.85;5.78;;;4.40;99.90;;;;;;4958392;28;20177;-95
2022/02/18 05:35:41;;;;;;;6.70;5.45;;;4.40;99.90;;;;;;4958112;28;20031;-95
2022/02/18 05:38:07;;;;;;;7.15;5.65;;;4.40;99.90;;;;;;4959167;28;20037;-95
2022/02/18 05:40:32;;;;;;;6.97;5.70;;;4.40;99.90;;;;;;4957968;28;20029;-96
2022/02/18 05:42:58;;;;;;;8.13;6.05;;;4.40;99.90;;;;;;4958306;28;20031;-96
2022/02/18 05:45:24;;;;;;;6.68;5.40;;;4.40;99.90;;;;;;4959841;28;20027;-96
2022/02/18 05:47:51;;;;;;;9.70;7.20;;;4.30;99.90;;;;;;4961267;28;20032;-93
2022/02/18 05:50:17;;;;;;;8.15;6.22;;;4.40;99.90;;;;;;4961299;28;20027;-95
2022/02/18 05:52:46;;;;;;;9.27;6.43;;;4.30;99.90;;;;;;4961407;28;20030;-95
2022/02/18 05:55:13;;;;;;;8.10;5.93;;;4.30;99.90;;;;;;4964422;28;20063;-94
2022/02/18 05:57:40;;;;;;;8.57;6.47;;;4.20;99.90;;;;;;4960976;28;20125;-94
2022/02/18 06:00:07;;;;;;;8.85;6.18;;;4.10;99.90;;;;;;4961204;28;20077;-93
2022/02/18 06:02:34;;;;;;;22.70;11.55;;;4.10;99.90;;;;;;4961431;28;20476;-95
2022/02/18 06:05:01;;;;;;;38.70;22.83;;;4.00;99.90;;;;;;4961475;28;20027;-93
2022/02/18 06:07:27;;;;;;;15.98;11.38;;;4.10;99.90;;;;;;4961302;28;20073;-94
2022/02/18 06:09:53;;;;;;;9.63;7.13;;;4.10;99.90;;;;;;4960652;28;20026;-94
2022/02/18 06:12:19;;;;;;;9.20;6.70;;;4.10;99.90;;;;;;4960902;28;20027;-94
2022/02/18 06:14:49;;;;;;;8.95;7.40;;;4.10;99.90;;;;;;4960931;28;20023;-95
2022/02/18 06:17:19;;;;;;;7.80;5.57;;;4.10;99.90;;;;;;4961623;28;20061;-95
2022/02/18 06:19:44;;;;;;;8.27;5.90;;;4.10;99.90;;;;;;4960965;28;20034;-95
2022/02/18 06:22:53;;;;;;;6.43;5.45;;;4.20;99.90;;;;;;4963899;28;20507;-96
2022/02/18 06:25:19;;;;;;;7.45;5.65;;;4.10;99.90;;;;;;4961022;28;20030;-96
2022/02/18 06:27:44;;;;;;;10.07;7.55;;;4.20;99.90;;;;;;4960896;28;20023;-96
2022/02/18 06:30:11;;;;;;;7.00;5.75;;;4.20;99.90;;;;;;4960669;28;20027;-96
2022/02/18 06:32:36;;;;;;;11.38;7.68;;;4.20;99.90;;;;;;4961300;28;20034;-96
2022/02/18 06:35:03;;;;;;;15.70;10.23;;;4.20;99.90;;;;;;4960527;28;20027;-96
2022/02/18 06:37:28;;;;;;;11.07;5.63;;;4.30;99.90;;;;;;4960479;28;20026;-95
2022/02/18 06:39:54;;;;;;;8.10;5.80;;;4.40;99.90;;;;;;4961212;28;20027;-93
2022/02/18 06:42:20;;;;;;;7.05;5.20;;;4.40;99.90;;;;;;4961778;28;20113;-96
2022/02/18 06:44:46;;;;;;;5.93;4.63;;;4.50;99.90;;;;;;4964941;28;20037;-96
2022/02/18 06:47:19;;;;;;;8.93;6.10;;;4.50;99.90;;;;;;4974067;28;20034;-96
2022/02/18 06:49:45;;;;;;;5.22;3.70;;;4.50;99.90;;;;;;4967166;28;20018;-96
2022/02/18 06:52:11;;;;;;;7.25;4.13;;;4.60;99.90;;;;;;4960309;28;20077;-96
2022/02/18 06:54:38;;;;;;;6.78;3.92;;;4.70;99.90;;;;;;4960818;28;20086;-96
2022/02/18 06:57:05;;;;;;;6.15;4.75;;;4.70;99.90;;;;;;4962602;28;20377;-96
2022/02/18 06:59:31;;;;;;;5.97;4.10;;;4.80;99.90;;;;;;4960189;28;20027;-96
2022/02/18 07:01:57;;;;;;;9.25;7.45;;;4.80;99.90;;;;;;4960601;28;20366;-96
2022/02/18 07:04:23;;;;;;;9.77;6.30;;;4.80;99.90;;;;;;4961199;28;20460;-96
2022/02/18 07:06:49;;;;;;;7.45;5.35;;;4.80;99.90;;;;;;4959887;28;20033;-96
2022/02/18 07:09:15;;;;;;;11.70;6.32;;;4.80;99.90;;;;;;4960080;28;20488;-96
2022/02/18 07:11:41;;;;;;;11.23;5.95;;;4.90;99.90;;;;;;4960960;28;20030;-96
2022/02/18 07:14:09;;;;;;;13.50;7.13;;;4.90;99.90;;;;;;4960622;28;20477;-96
2022/02/18 07:16:44;;;;;;;27.55;12.93;;;4.90;99.90;;;;;;4960826;28;20027;-96
2022/02/18 07:19:17;;;;;;;12.52;6.47;;;4.90;99.90;;;;;;4967319;28;20047;-96
2022/02/18 07:21:43;;;;;;;20.02;10.02;;;4.90;99.90;;;;;;4961979;28;20026;-94
2022/02/18 07:24:10;;;;;;;21.23;10.73;;;4.90;99.90;;;;;;4960256;28;20377;-93
2022/02/18 07:26:37;;;;;;;10.77;6.03;;;4.90;99.90;;;;;;4960159;28;20492;-96
2022/02/18 07:29:14;;;;;;;17.95;9.38;;;4.90;99.90;;;;;;4962401;28;20042;-96
2022/02/18 07:31:40;;;;;;;10.32;5.65;;;4.90;99.90;;;;;;4966277;28;20058;-96
2022/02/18 07:34:05;;;;;;;50.20;27.25;;;4.90;99.90;;;;;;4964094;28;20101;-96
2022/02/18 07:36:31;;;;;;;38.85;22.50;;;4.90;99.90;;;;;;4970781;28;20121;-96
2022/02/18 07:39:00;;;;;;;22.15;11.02;;;4.90;99.90;;;;;;4960577;28;20045;-96
2022/02/18 07:41:26;;;;;;;5.38;3.75;;;4.90;99.90;;;;;;4961381;28;20051;-96
2022/02/18 07:43:53;;;;;;;9.23;6.45;;;4.90;99.90;;;;;;4966071;28;20065;-96
2022/02/18 07:46:21;;;;;;;13.15;8.45;;;4.80;99.90;;;;;;4948611;28;20059;-96
2022/02/18 07:52:09;;;;;;;13.82;9.30;;;4.70;99.90;;;;;;4993378;28;20030;-93
2022/02/18 07:54:36;;;;;;;46.00;33.65;;;4.60;99.90;;;;;;4965890;28;20487;-96
2022/02/18 07:57:02;;;;;;;9.85;7.00;;;4.50;99.90;;;;;;4960310;28;20026;-96
2022/02/18 07:59:29;;;;;;;7.70;5.03;;;4.50;99.90;;;;;;4960660;28;20034;-96
2022/02/18 08:01:55;;;;;;;7.43;4.88;;;4.40;99.90;;;;;;4966258;28;20165;-96
2022/02/18 08:04:21;;;;;;;6.10;4.72;;;4.40;99.90;;;;;;4961182;28;20026;-94
2022/02/18 08:06:46;;;;;;;4.25;2.90;;;4.50;99.90;;;;;;4966544;28;20133;-96
2022/02/18 08:09:12;;;;;;;5.63;3.45;;;4.60;99.90;;;;;;4972752;28;20031;-96
2022/02/18 08:11:44;;;;;;;8.27;5.20;;;4.70;99.90;;;;;;4977083;28;20027;-96
2022/02/18 08:14:19;;;;;;;8.25;4.38;;;4.80;99.90;;;;;;4988402;28;20026;-96
2022/02/18 08:16:45;;;;;;;6.82;4.35;;;4.90;99.90;;;;;;4994438;28;20035;-94
2022/02/18 08:19:11;;;;;;;3.65;2.83;;;4.90;99.90;;;;;;4959560;28;20069;-96
2022/02/18 08:21:37;;;;;;;4.53;2.78;;;4.90;99.90;;;;;;4958793;28;20033;-95
2022/02/18 08:24:03;;;;;;;3.97;2.72;;;4.90;99.90;;;;;;4963785;28;20025;-96
2022/02/18 08:26:32;;;;;;;5.50;2.90;;;4.90;99.90;;;;;;4966528;28;20031;-96
2022/02/18 08:28:58;;;;;;;6.32;4.35;;;4.90;99.90;;;;;;4981173;28;20041;-96
2022/02/18 08:31:23;;;;;;;7.55;4.70;;;4.90;99.90;;;;;;4960071;28;20030;-96
2022/02/18 08:33:49;;;;;;;8.43;3.75;;;4.90;99.90;;;;;;4964644;28;20065;-96
2022/02/18 08:36:15;;;;;;;7.50;4.45;;;5.00;99.90;;;;;;4962443;28;20038;-95
2022/02/18 08:38:41;;;;;;;5.50;2.67;;;5.10;99.90;;;;;;4961584;28;20027;-96
2022/02/18 08:41:06;;;;;;;7.43;4.60;;;5.20;99.90;;;;;;4962231;28;20382;-96
2022/02/18 08:43:32;;;;;;;17.98;9.15;;;5.30;99.90;;;;;;4961546;28;20074;-96
2022/02/18 08:45:58;;;;;;;34.95;14.98;;;5.40;99.90;;;;;;4959761;28;20065;-96
2022/02/18 08:48:24;;;;;;;41.10;19.05;;;5.50;99.90;;;;;;4959625;28;20066;-96
2022/02/18 08:50:50;;;;;;;7.32;4.25;;;5.50;99.90;;;;;;4959400;28;20074;-96
2022/02/18 08:53:15;;;;;;;3.20;2.05;;;5.60;99.90;;;;;;4958697;28;20050;-96
2022/02/18 08:55:41;;;;;;;43.95;20.23;;;5.50;99.90;;;;;;4958901;28;20038;-96
2022/02/18 08:58:08;;;;;;;13.48;4.15;;;5.50;99.90;;;;;;4958276;28;20144;-96
2022/02/18 09:00:34;;;;;;;4.63;2.88;;;5.50;99.90;;;;;;4958202;28;20047;-95
2022/02/18 09:03:00;;;;;;;5.78;4.20;;;5.50;99.90;;;;;;4958546;28;20022;-96
2022/02/18 09:05:28;;;;;;;4.45;2.83;;;5.60;99.90;;;;;;4962207;28;20026;-96
2022/02/18 09:07:55;;;;;;;6.40;3.38;;;5.60;99.90;;;;;;4974254;28;20042;-95
2022/02/18 09:10:21;;;;;;;10.25;6.22;;;5.60;99.90;;;;;;4961841;28;20027;-96
2022/02/18 09:12:56;;;;;;;12.40;7.72;;;5.70;99.90;;;;;;4968405;28;20523;-96
2022/02/18 09:15:22;;;;;;;10.63;7.47;;;5.70;99.90;;;;;;4963546;28;20050;-96
2022/02/18 09:17:47;;;;;;;20.05;8.35;;;5.80;99.90;;;;;;4958753;28;20508;-96
2022/02/18 09:20:16;;;;;;;6.00;4.15;;;5.90;99.90;;;;;;4994160;28;20058;-96
2022/02/18 09:22:43;;;;;;;8.85;5.75;;;6.00;99.90;;;;;;4965830;28;20055;-96
2022/02/18 09:25:10;;;;;;;5.90;2.90;;;6.00;99.90;;;;;;5004312;28;20023;-96
2022/02/18 09:27:35;;;;;;;5.32;3.53;;;6.00;99.90;;;;;;4996690;28;20022;-94
2022/02/18 09:30:02;;;;;;;3.55;3.10;;;5.90;99.90;;;;;;4996972;28;20034;-96
2022/02/18 09:32:28;;;;;;;2.20;2.00;;;5.80;99.90;;;;;;4962453;28;20031;-95
2022/02/18 09:34:54;;;;;;;3.70;1.80;;;5.70;99.90;;;;;;4996150;28;20026;-96
2022/02/18 09:37:19;;;;;;;4.13;3.10;;;5.60;99.90;;;;;;4995544;28;20071;-96
2022/02/18 09:39:45;;;;;;;8.73;5.22;;;5.50;99.90;;;;;;4994544;28;20027;-96
2022/02/18 09:42:13;;;;;;;4.25;3.03;;;5.50;99.90;;;;;;4999283;28;20023;-95
2022/02/18 09:44:42;;;;;;;4.22;2.67;;;5.50;99.90;;;;;;4961968;28;20023;-96
2022/02/18 09:47:12;;;;;;;5.88;4.00;;;5.50;99.90;;;;;;4963904;28;20054;-96
2022/02/18 09:49:39;;;;;;;16.13;8.18;;;5.50;99.90;;;;;;4964554;28;20026;-96
2022/02/18 09:52:06;;;;;;;10.60;6.60;;;5.50;99.90;;;;;;4961476;28;20465;-95
2022/02/18 09:54:33;;;;;;;4.30;2.58;;;5.60;99.90;;;;;;4962536;28;20126;-96
2022/02/18 09:57:00;;;;;;;6.45;2.30;;;5.70;99.90;;;;;;4949947;28;20035;-96
2022/02/18 09:59:28;;;;;;;3.72;1.95;;;5.90;99.90;;;;;;4999136;28;20039;-96
2022/02/18 10:01:58;;;;;;;23.52;16.10;;;6.00;99.90;;;;;;4976771;28;20051;-96
2022/02/18 10:04:24;;;;;;;10.00;5.05;;;6.20;99.90;;;;;;4961847;28;20027;-96
2022/02/18 10:06:50;;;;;;;6.60;2.90;;;6.40;98.90;;;;;;4993746;28;20023;-96
2022/02/18 10:09:15;;;;;;;2.92;2.33;;;6.50;99.50;;;;;;4993445;28;20035;-95
2022/02/18 10:11:52;;;;;;;4.88;2.28;;;6.50;98.90;;;;;;4993370;28;20362;-96
2022/02/18 10:14:19;;;;;;;6.63;4.47;;;6.50;98.10;;;;;;4960965;28;20054;-95
2022/02/18 10:16:44;;;;;;;6.53;3.60;;;6.60;98.90;;;;;;4992941;28;20034;-96
2022/02/18 10:19:11;;;;;;;5.25;3.67;;;6.50;98.60;;;;;;4960759;28;20046;-95
2022/02/18 10:21:39;;;;;;;5.40;3.83;;;6.50;99.10;;;;;;4960512;28;20165;-96
2022/02/18 10:24:13;;;;;;;4.88;3.60;;;6.50;99.00;;;;;;4960740;28;20026;-96
2022/02/18 10:26:43;;;;;;;9.15;4.15;;;6.50;98.70;;;;;;4960832;28;20031;-89
2022/02/18 10:29:18;;;;;;;10.57;5.25;;;6.50;98.30;;;;;;4961223;28;20074;-96
2022/02/18 10:31:43;;;;;;;9.63;4.68;;;6.60;98.40;;;;;;4960150;28;20030;-96
2022/02/18 10:34:10;;;;;;;5.00;2.80;;;6.60;98.40;;;;;;4960718;28;20026;-96
2022/02/18 10:36:40;;;;;;;7.00;3.95;;;6.70;97.90;;;;;;4960546;28;20035;-96
2022/02/18 10:39:28;;;;;;;4.27;2.07;;;6.70;98.10;;;;;;4960586;28;20062;-96
2022/02/18 10:42:00;;;;;;;6.38;3.20;;;6.70;97.70;;;;;;4960538;28;20462;-95
2022/02/18 10:44:35;;;;;;;2.75;2.10;;;6.60;97.70;;;;;;4961131;28;20031;-95
2022/02/18 10:47:06;;;;;;;2.80;1.70;;;6.60;97.70;;;;;;4960319;28;20027;-95
2022/02/18 10:49:43;;;;;;;2.78;1.70;;;6.60;97.20;;;;;;4960303;28;20030;-96
2022/02/18 10:52:18;;;;;;;4.32;2.20;;;6.50;97.60;;;;;;4960404;28;20130;-96
2022/02/18 10:54:45;;;;;;;6.35;2.38;;;6.60;97.80;;;;;;4960377;28;20027;-96
2022/02/18 10:57:12;;;;;;;2.53;1.85;;;6.50;96.90;;;;;;4960238;28;20026;-96
2022/02/18 10:59:38;;;;;;;4.90;2.67;;;6.50;97.50;;;;;;4960054;28;20117;-95
2022/02/18 11:02:04;;;;;;;23.30;13.07;;;6.50;97.50;;;;;;4960058;28;20125;-96
2022/02/18 11:04:29;;;;;;;20.35;9.40;;;6.50;97.20;;;;;;4959818;28;20589;-94
2022/02/18 11:07:12;;;;;;;23.50;10.93;;;6.60;96.80;;;;;;4960024;28;20026;-96
2022/02/18 11:09:38;;;;;;;11.18;5.68;;;6.70;96.60;;;;;;4960730;28;20062;-95
2022/02/18 11:12:09;;;;;;;14.15;7.78;;;6.90;96.20;;;;;;4959855;28;20142;-95
2022/02/18 11:14:35;;;;;;;;;;;7.00;95.00;;;;;;4960388;28;20118;-95
2022/02/18 11:17:02;;;;;;;1.92;1.60;;;7.10;95.60;;;;;;4960021;28;19914;-96
2022/02/18 11:19:28;;;;;;;3.38;2.22;;;7.20;95.50;;;;;;4959847;28;20053;-96
2022/02/18 11:21:54;;;;;;;5.68;2.42;;;7.30;95.70;;;;;;4960520;28;20055;-95
2022/02/18 11:24:21;;;;;;;4.43;2.55;;;7.30;95.00;;;;;;4959554;28;20030;-95
2022/02/18 11:26:48;;;;;;;2.15;1.90;;;7.40;95.10;;;;;;4959463;28;20480;-96
2022/02/18 11:29:14;;;;;;;3.15;2.20;;;7.30;94.80;;;;;;4959560;28;20121;-96
2022/02/18 11:31:52;;;;;;;4.32;2.10;;;7.30;95.00;;;;;;4960666;28;20023;-96
2022/02/18 11:34:42;;;;;;;4.43;2.00;;;7.30;95.30;;;;;;4959808;28;20042;-96
2022/02/18 11:37:26;;;;;;;;;;;7.20;94.60;;;;;;4960806;28;20027;-96
2022/02/18 11:40:20;;;;;;;5.47;3.55;;;7.20;94.60;;;;;;4960668;28;19909;-95
2022/02/18 11:43:16;;;;;;;3.15;2.30;;;7.10;94.30;;;;;;4962867;28;20027;-96
2022/02/18 11:45:42;;;;;;;4.15;2.45;;;7.10;94.50;;;;;;4960061;28;20023;-95
2022/02/18 11:48:28;;;;;;;9.02;4.45;;;7.00;94.90;;;;;;4959444;28;20468;-96
2022/02/18 11:51:24;;;;;;;12.02;3.60;;;7.00;95.00;;;;;;4960831;28;20027;-95
2022/02/18 11:53:59;;;;;;;8.55;5.47;;;7.10;95.50;;;;;;4960195;28;20027;-93
2022/02/18 11:56:49;;;;;;;3.67;2.22;;;7.30;95.80;;;;;;4977486;28;20114;-94
2022/02/18 11:59:15;;;;;;;4.10;2.10;;;7.40;95.20;;;;;;4961512;28;20512;-91
2022/02/18 12:02:03;;;;;;;3.20;2.10;;;7.50;95.40;;;;;;4959306;28;20121;-91
2022/02/18 12:04:29;;;;;;;2.60;1.85;;;7.60;94.80;;;;;;4961967;28;20433;-91
2022/02/18 12:07:15;;;;;;;5.43;1.92;;;7.70;94.80;;;;;;4965502;28;20026;-93
2022/02/18 12:09:49;;;;;;;3.92;2.10;;;7.80;93.70;;;;;;4959845;28;20027;-93
2022/02/18 12:12:22;;;;;;;4.53;2.63;;;7.90;94.40;;;;;;4960575;28;20027;-94
2022/02/18 12:14:54;;;;;;;4.07;2.45;;;7.90;94.10;;;;;;4960438;28;20027;-96
2022/02/18 12:17:20;;;;;;;6.90;2.70;;;7.90;94.30;;;;;;4959873;28;20480;-94
2022/02/18 12:19:46;;;;;;;10.65;5.78;;;7.90;94.40;;;;;;4959458;28;20493;-90
2022/02/18 12:22:12;;;;;;;4.25;2.78;;;7.90;94.50;;;;;;4959844;28;20162;-93
2022/02/18 12:24:53;;;;;;;3.03;2.13;;;7.90;94.60;;;;;;4960034;28;20033;-95
2022/02/18 12:27:19;;;;;;;4.03;2.50;;;7.90;94.30;;;;;;4958850;28;20027;-88
2022/02/18 12:29:46;;;;;;;3.88;2.63;;;7.80;94.50;;;;;;4959297;28;20031;-92
2022/02/18 12:32:13;;;;;;;10.52;5.80;;;7.70;94.60;;;;;;4958807;28;20485;-90
2022/02/18 12:34:41;;;;;;;3.53;2.80;;;7.70;95.00;;;;;;4976130;28;20469;-89
2022/02/18 12:37:07;;;;;;;11.05;7.88;;;7.60;95.20;;;;;;4959223;28;20045;-91
2022/02/18 12:39:34;;;;;;;6.22;3.17;;;7.50;95.50;;;;;;4959259;28;20030;-93
2022/02/18 12:42:08;;;;;;;5.15;3.00;;;7.50;95.30;;;;;;4958933;28;20114;-94
2022/02/18 12:44:34;;;;;;;5.88;3.03;;;7.50;95.60;;;;;;4959182;28;20062;-92
2022/02/18 12:47:00;;;;;;;5.00;3.20;;;7.40;95.50;;;;;;4958671;28;20058;-90
2022/02/18 12:49:42;;;;;;;4.47;3.33;;;7.50;95.90;;;;;;4958911;28;20038;-93
2022/02/18 12:52:09;;;;;;;6.55;3.65;;;7.60;95.70;;;;;;4959055;28;20113;-95
2022/02/18 12:54:57;;;;;;;6.97;3.90;;;7.60;95.70;;;;;;4960526;28;20035;-96
2022/02/18 12:57:27;;;;;;;7.43;3.92;;;7.60;95.80;;;;;;4962784;28;20022;-93
2022/02/18 12:59:54;;;;;;;14.02;4.80;;;7.50;95.50;;;;;;4955934;29;20056;-90
2022/02/18 13:02:48;;;;;;;6.15;3.10;;;7.50;95.90;;;;;;4942941;29;20051;-91
2022/02/18 13:05:20;;;;;;;5.97;3.38;;;7.50;96.00;;;;;;4943681;29;20027;-93
2022/02/18 13:07:54;;;;;;;7.88;4.85;;;7.50;96.20;;;;;;4942955;29;20167;-92
2022/02/18 13:10:23;;;;;;;9.48;3.85;;;7.40;96.10;;;;;;4943011;29;20031;-94
2022/02/18 13:12:52;;;;;;;5.47;3.80;;;7.40;96.30;;;;;;4942718;29;20127;-92